地図

経路データ

SID SEASON NUMBER BASIN SUBBASIN NAME ISO_TIME NATURE LAT LON WMO_WIND WMO_PRES WMO_AGENCY TRACK_TYPE DIST2LAND LANDFALL IFLAG USA_AGENCY USA_ATCF_ID USA_LAT USA_LON USA_RECORD USA_STATUS USA_WIND USA_PRES USA_SSHS USA_R34_NE USA_R34_SE USA_R34_SW USA_R34_NW USA_R50_NE USA_R50_SE USA_R50_SW USA_R50_NW USA_R64_NE USA_R64_SE USA_R64_SW USA_R64_NW USA_POCI USA_ROCI USA_RMW USA_EYE TOKYO_LAT TOKYO_LON TOKYO_GRADE TOKYO_WIND TOKYO_PRES TOKYO_R50_DIR TOKYO_R50_LONG TOKYO_R50_SHORT TOKYO_R30_DIR TOKYO_R30_LONG TOKYO_R30_SHORT TOKYO_LAND CMA_LAT CMA_LON CMA_CAT CMA_WIND CMA_PRES HKO_LAT HKO_LON HKO_CAT HKO_WIND HKO_PRES NEWDELHI_LAT NEWDELHI_LON NEWDELHI_GRADE NEWDELHI_WIND NEWDELHI_PRES NEWDELHI_CI NEWDELHI_DP NEWDELHI_POCI REUNION_LAT REUNION_LON REUNION_TYPE REUNION_WIND REUNION_PRES REUNION_TNUM REUNION_CI REUNION_RMW REUNION_R34_NE REUNION_R34_SE REUNION_R34_SW REUNION_R34_NW REUNION_R50_NE REUNION_R50_SE REUNION_R50_SW REUNION_R50_NW REUNION_R64_NE REUNION_R64_SE REUNION_R64_SW REUNION_R64_NW BOM_LAT BOM_LON BOM_TYPE BOM_WIND BOM_PRES BOM_TNUM BOM_CI BOM_RMW BOM_R34_NE BOM_R34_SE BOM_R34_SW BOM_R34_NW BOM_R50_NE BOM_R50_SE BOM_R50_SW BOM_R50_NW BOM_R64_NE BOM_R64_SE BOM_R64_SW BOM_R64_NW BOM_ROCI BOM_POCI BOM_EYE BOM_POS_METHOD BOM_PRES_METHOD NADI_LAT NADI_LON NADI_CAT NADI_WIND NADI_PRES WELLINGTON_LAT WELLINGTON_LON WELLINGTON_WIND WELLINGTON_PRES DS824_LAT DS824_LON DS824_STAGE DS824_WIND DS824_PRES TD9636_LAT TD9636_LON TD9636_STAGE TD9636_WIND TD9636_PRES TD9635_LAT TD9635_LON TD9635_WIND TD9635_PRES TD9635_ROCI NEUMANN_LAT NEUMANN_LON NEUMANN_CLASS NEUMANN_WIND NEUMANN_PRES MLC_LAT MLC_LON MLC_CLASS MLC_WIND MLC_PRES USA_GUST BOM_GUST BOM_GUST_PER REUNION_GUST REUNION_GUST_PER USA_SEAHGT USA_SEARAD_NE USA_SEARAD_SE USA_SEARAD_SW USA_SEARAD_NW STORM_SPEED STORM_DIR
1855308N24311 1855 15 NA NA NOT_NAMED 1855-11-03 12:00:00 TS 24.0000 -48.8000 main 1848 1829 _____________O -1 24.0000 -48.8000 TD 30 4 266
1855308N24311 1855 15 NA NA NOT_NAMED 1855-11-03 15:00:00 TS 23.9876 -49.0100 main 1829 1809 _____________P -1 23.9876 -49.0100 TD 30 4 270
1855308N24311 1855 15 NA NA NOT_NAMED 1855-11-03 18:00:00 TS 24.0000 -49.2000 main 1809 1800 _____________O -1 24.0000 -49.2000 TD 30 3 281
1855308N24311 1855 15 NA NA NOT_NAMED 1855-11-03 21:00:00 TS 24.0500 -49.3575 main 1790 1784 _____________P -1 24.0500 -49.3575 TD 30 3 290
1855308N24311 1855 15 NA NA NOT_NAMED 1855-11-04 00:00:00 TS 24.1000 -49.5000 main 1784 1774 _____________O -1 24.1000 -49.5000 TD 30 3 282
1855308N24311 1855 15 NA NA NOT_NAMED 1855-11-04 03:00:00 TS 24.1075 -49.6500 main 1764 1755 _____________P -1 24.1075 -49.6500 TD 30 3 270
1855308N24311 1855 15 NA NA NOT_NAMED 1855-11-04 06:00:00 TS 24.1000 -49.8000 main 1755 1745 _____________O -1 24.1000 -49.8000 TD 30 2 258
1855308N24311 1855 15 NA NA NOT_NAMED 1855-11-04 09:00:00 TS 24.0621 -49.8904 main 1745 1726 _____________P -1 24.0621 -49.8904 TD 30 3 270
1855308N24311 1855 15 NA NA NOT_NAMED 1855-11-04 12:00:00 TS 24.1000 -50.1000 main 1726 1685 _____________O -1 24.1000 -50.1000 TD 30 7 291
1855308N24311 1855 15 NA NA NOT_NAMED 1855-11-04 15:00:00 TS 24.3128 -50.5897 main 1685 1641 _____________P -1 24.3128 -50.5897 TD 30 11 297
1855308N24311 1855 15 NA NA NOT_NAMED 1855-11-04 18:00:00 TS 24.6000 -51.2000 main 1641 1603 _____________O -1 24.6000 -51.2000 TD 30 12 297
1855308N24311 1855 15 NA NA NOT_NAMED 1855-11-04 21:00:00 TS 24.8498 -51.7502 main 1594 1562 _____________P -1 24.8498 -51.7502 TD 30 11 297
1855308N24311 1855 15 NA NA NOT_NAMED 1855-11-05 00:00:00 TS 25.1000 -52.3000 main 1562 1528 _____________O -1 25.1000 -52.3000 TD 30 11 297
1855308N24311 1855 15 NA NA NOT_NAMED 1855-11-05 03:00:00 TS 25.3573 -52.8501 main 1524 1491 _____________P -1 25.3573 -52.8501 TD 32 11 297
1855308N24311 1855 15 NA NA NOT_NAMED 1855-11-05 06:00:00 TS 25.6000 -53.4000 main 1491 1460 _____________O -1 25.6000 -53.4000 TS 35 11 294
1855308N24311 1855 15 NA NA NOT_NAMED 1855-11-05 09:00:00 TS 25.7997 -53.9429 main 1460 1422 _____________P -1 25.7997 -53.9429 TS 35 11 292
1855308N24311 1855 15 NA NA NOT_NAMED 1855-11-05 12:00:00 TS 26.0000 -54.5000 main 1422 1386 _____________O -1 26.0000 -54.5000 TS 35 11 293
1855308N24311 1855 15 NA NA NOT_NAMED 1855-11-05 15:00:00 TS 26.2424 -55.1001 main 1386 1360 _____________P -1 26.2424 -55.1001 TS 35 12 295
1855308N24311 1855 15 NA NA NOT_NAMED 1855-11-05 18:00:00 TS 26.5000 -55.7000 main 1360 1337 _____________O -1 26.5000 -55.7000 TS 35 12 296
1855308N24311 1855 15 NA NA NOT_NAMED 1855-11-05 21:00:00 TS 26.7497 -56.2578 main 1330 1316 _____________P -1 26.7497 -56.2578 TS 35 11 297
1855308N24311 1855 15 NA NA NOT_NAMED 1855-11-06 00:00:00 TS 27.0000 -56.8000 main 1317 1299 _____________O -1 27.0000 -56.8000 TS 35 11 297
1855308N24311 1855 15 NA NA NOT_NAMED 1855-11-06 03:00:00 TS 27.2498 -57.3502 main 1292 1283 _____________P -1 27.2498 -57.3502 TS 40 11 297
1855308N24311 1855 15 NA NA NOT_NAMED 1855-11-06 06:00:00 TS 27.5000 -57.9000 main 1285 1273 _____________O -1 27.5000 -57.9000 TS 45 11 297
1855308N24311 1855 15 NA NA NOT_NAMED 1855-11-06 09:00:00 TS 27.7498 -58.4503 main 1267 1262 _____________P -1 27.7498 -58.4503 TS 45 11 297
1855308N24311 1855 15 NA NA NOT_NAMED 1855-11-06 12:00:00 TS 28.0000 -59.0000 main 1266 1259 _____________O -1 28.0000 -59.0000 TS 45 11 297
1855308N24311 1855 15 NA NA NOT_NAMED 1855-11-06 15:00:00 TS 28.2499 -59.5577 main 1254 1254 _____________P -1 28.2499 -59.5577 TS 45 11 297
1855308N24311 1855 15 NA NA NOT_NAMED 1855-11-06 18:00:00 TS 28.5000 -60.1000 main 1259 1255 _____________O -1 28.5000 -60.1000 TS 45 11 298
1855308N24311 1855 15 NA NA NOT_NAMED 1855-11-06 21:00:00 TS 28.7497 -60.6078 main 1258 1258 _____________P -1 28.7497 -60.6078 TS 45 10 300
1855308N24311 1855 15 NA NA NOT_NAMED 1855-11-07 00:00:00 TS 29.0000 -61.1000 main 1269 1266 _____________O -1 29.0000 -61.1000 TS 45 10 300
1855308N24311 1855 15 NA NA NOT_NAMED 1855-11-07 03:00:00 TS 29.2573 -61.6001 main 1283 1277 _____________P -1 29.2573 -61.6001 TS 50 10 300
1855308N24311 1855 15 NA NA NOT_NAMED 1855-11-07 06:00:00 TS 29.5000 -62.1000 main 1290 1287 _____________O -1 29.5000 -62.1000 TS 55 10 296
1855308N24311 1855 15 NA NA NOT_NAMED 1855-11-07 09:00:00 TS 29.6850 -62.6229 main 1298 1294 _____________P -1 29.6850 -62.6229 TS 55 10 295
1855308N24311 1855 15 NA NA NOT_NAMED 1855-11-07 12:00:00 TS 29.9000 -63.1000 main 1309 1278 _____________O -1 29.9000 -63.1000 TS 55 9 306
1855308N24311 1855 15 NA NA NOT_NAMED 1855-11-07 15:00:00 TS 30.2348 -63.4800 main 1278 1230 _____________P -1 30.2348 -63.4800 TS 55 9 319
1855308N24311 1855 15 NA NA NOT_NAMED 1855-11-07 18:00:00 TS 30.6000 -63.8000 main 1230 1188 _____________O -1 30.6000 -63.8000 TS 55 9 322
1855308N24311 1855 15 NA NA NOT_NAMED 1855-11-07 21:00:00 TS 30.9073 -64.1004 main 1188 1147 _____________P -1 30.9073 -64.1004 TS 55 8 319
1855308N24311 1855 15 NA NA NOT_NAMED 1855-11-08 00:00:00 TS 31.2000 -64.4000 main 1147 1105 _____________O -1 31.2000 -64.4000 TS 55 8 316
1855308N24311 1855 15 NA NA NOT_NAMED 1855-11-08 03:00:00 TS 31.4925 -64.7502 main 1097 1056 _____________P -1 31.4925 -64.7502 TS 55 8 315
1855308N24311 1855 15 NA NA NOT_NAMED 1855-11-08 06:00:00 TS 31.8000 -65.1000 main 1056 1016 _____________O -1 31.8000 -65.1000 TS 55 9 317
1855308N24311 1855 15 NA NA NOT_NAMED 1855-11-08 09:00:00 TS 32.1200 -65.4301 main 1016 971 _____________P -1 32.1200 -65.4301 TS 55 9 324
1855308N24311 1855 15 NA NA NOT_NAMED 1855-11-08 12:00:00 TS 32.5000 -65.7000 main 971 936 _____________O -1 32.5000 -65.7000 TS 55 995 10 335
1855308N24311 1855 15 NA NA NOT_NAMED 1855-11-08 15:00:00 TS 32.9774 -65.9097 main 932 903 _____________P -1 32.9774 -65.9097 TS 55 10 346
1855308N24311 1855 15 NA NA NOT_NAMED 1855-11-08 18:00:00 TS 33.5000 -66.0000 main 903 887 _____________O -1 33.5000 -66.0000 TS 55 10 357
1855308N24311 1855 15 NA NA NOT_NAMED 1855-11-08 21:00:00 TS 33.9998 -65.9822 main 887 881 _____________P -1 33.9998 -65.9822 TS 50 10 10
1855308N24311 1855 15 NA NA NOT_NAMED 1855-11-09 00:00:00 ET 34.5000 -65.8000 main 881 842 _____________O -1 34.5000 -65.8000 EX 45 11 24
1855308N24311 1855 15 NA NA NOT_NAMED 1855-11-09 03:00:00 ET 35.0003 -65.4380 main 846 814 _____________P -1 35.0003 -65.4380 EX 40 12 33
1855308N24311 1855 15 NA NA NOT_NAMED 1855-11-09 06:00:00 ET 35.5000 -65.0000 main 814 787 _____________O -1 35.5000 -65.0000 EX 35 12 33
1855308N24311 1855 15 NA NA NOT_NAMED 1855-11-09 09:00:00 ET 35.9999 -64.6253 main 787 758 _____________P -1 35.9999 -64.6253 EX 35 12 30
1855308N24311 1855 15 NA NA NOT_NAMED 1855-11-09 12:00:00 ET 36.5000 -64.3000 main 758 _____________O -1 36.5000 -64.3000 EX 35 11 28

IBTrACS Databaseについて

本データベースは、米国NOAAが公開する1842年以降の世界の熱帯低気圧のベストトラックデータアーカイブInternational Best Track Archive for Climate Stewardship (IBTrACS)を、ウェブで閲覧しやすい形式に変換したものです。

最終更新日:2021-12-03